Time;durP1;ratioP1;P1;durP2;ratioP2;P2;SDS_P1;SDS_P2;PMS_P1;PMS_P2;Temp;Humidity;BMP_temperature;BMP_pressure;BME280_temperature;BME280_humidity;BME280_pressure;Samples;Min_cycle;Max_cycle;Signal;HPM_P1;HPM_P2
2024/03/02 00:00:11;;;;;;;39.42;20.52;;;;;;;4.68;79.20;93263.53;5031181;28;20527;-71
2024/03/02 00:02:41;;;;;;;43.85;21.77;;;;;;;4.77;78.99;93277.63;5032588;28;20029;-71
2024/03/02 00:05:07;;;;;;;39.90;22.48;;;;;;;4.43;79.66;93266.59;5032741;28;20049;-72
2024/03/02 00:07:33;;;;;;;38.90;22.45;;;;;;;4.68;79.97;93285.41;5032622;28;20033;-71
2024/03/02 00:09:58;;;;;;;38.58;21.50;;;;;;;4.94;79.07;93283.09;5032614;28;20029;-71
2024/03/02 00:12:24;;;;;;;39.58;22.08;;;;;;;4.65;78.75;93275.44;5032727;28;20034;-71
2024/03/02 00:14:49;;;;;;;34.20;21.02;;;;;;;4.49;79.72;93281.25;5033045;28;20478;-71
2024/03/02 00:17:24;;;;;;;36.05;22.13;;;;;;;5.02;79.24;93273.75;5032478;28;20539;-71
2024/03/02 00:19:49;;;;;;;;;;;;;;;5.56;77.60;93280.91;5032903;28;20116;-72
2024/03/02 00:22:15;;;;;;;37.55;20.92;;;;;;;5.93;74.96;93282.50;5032657;28;20336;-72
2024/03/02 00:24:40;;;;;;;29.33;19.73;;;;;;;6.32;73.60;93289.88;5032257;28;20130;-72
2024/03/02 00:27:07;;;;;;;36.60;20.75;;;;;;;6.49;71.99;93276.81;5032522;28;20027;-72
2024/03/02 00:29:32;;;;;;;33.20;19.45;;;;;;;6.96;70.56;93285.19;5032699;28;20045;-71
2024/03/02 00:31:58;;;;;;;34.65;20.23;;;;;;;7.22;69.69;93286.09;5032480;28;20053;-71
2024/03/02 00:34:23;;;;;;;32.55;19.60;;;;;;;7.51;68.32;93283.75;5031790;28;20033;-72
2024/03/02 00:36:49;;;;;;;33.25;18.85;;;;;;;7.45;67.07;93274.38;5031947;28;20030;-72
2024/03/02 00:39:16;;;;;;;34.97;21.25;;;;;;;7.42;67.62;93277.63;5031765;28;20041;-72
2024/03/02 00:41:42;;;;;;;33.90;20.33;;;;;;;7.42;67.73;93269.69;5032492;28;20021;-72
2024/03/02 00:44:11;;;;;;;29.33;19.45;;;;;;;7.49;67.12;93263.94;5031815;28;20045;-72
2024/03/02 00:46:37;;;;;;;32.30;19.40;;;;;;;7.77;66.20;93259.25;5031602;28;20036;-71
2024/03/02 00:49:05;;;;;;;31.00;19.25;;;;;;;8.18;65.12;93267.56;5031862;28;20561;-72
2024/03/02 00:51:33;;;;;;;35.78;20.20;;;;;;;8.35;63.80;93269.44;5031869;28;20037;-72
2024/03/02 00:54:03;;;;;;;33.70;20.15;;;;;;;8.53;62.89;93261.16;5032075;28;20100;-71
2024/03/02 00:56:29;;;;;;;31.80;19.15;;;;;;;8.67;62.24;93273.47;5032093;28;20035;-72
2024/03/02 00:58:55;;;;;;;30.45;20.10;;;;;;;8.80;61.06;93275.19;5031913;28;20025;-71
2024/03/02 01:01:21;;;;;;;29.38;20.10;;;;;;;8.89;60.28;93278.59;5031803;28;20056;-71
2024/03/02 01:03:46;;;;;;;28.88;18.80;;;;;;;8.82;60.83;93273.00;5031676;28;20505;-72
2024/03/02 01:06:12;;;;;;;28.27;16.75;;;;;;;8.80;60.57;93262.72;5031707;28;20532;-72
2024/03/02 01:08:38;;;;;;;35.53;20.02;;;;;;;8.80;60.86;93265.38;5032340;28;20474;-72
2024/03/02 01:11:04;;;;;;;26.83;17.45;;;;;;;8.95;60.39;93272.78;5031500;28;20044;-72
2024/03/02 01:13:30;;;;;;;28.52;19.83;;;;;;;8.80;60.48;93243.38;5031560;28;20053;-72
2024/03/02 01:15:56;;;;;;;25.85;16.92;;;;;;;9.02;61.03;93267.03;5031635;28;20543;-72
2024/03/02 01:18:22;;;;;;;30.17;19.38;;;;;;;8.89;61.19;93260.03;5031483;28;20030;-71
2024/03/02 01:20:47;;;;;;;26.63;17.63;;;;;;;9.12;59.93;93255.31;5031919;28;20051;-72
2024/03/02 01:23:13;;;;;;;33.22;17.52;;;;;;;8.80;59.62;93215.00;5031661;28;20405;-71
2024/03/02 01:25:38;;;;;;;34.17;20.38;;;;;;;8.80;60.47;93251.31;5031634;28;20064;-72
2024/03/02 01:28:05;;;;;;;32.42;18.40;;;;;;;8.68;61.43;93253.81;5031511;28;20501;-72
2024/03/02 01:30:30;;;;;;;29.80;18.90;;;;;;;8.65;61.72;93251.81;5031584;28;20052;-72
2024/03/02 01:32:56;;;;;;;29.80;18.23;;;;;;;8.62;61.70;93236.53;5032024;28;20026;-71
2024/03/02 01:35:21;;;;;;;31.42;19.27;;;;;;;8.86;61.01;93252.69;5031760;28;20020;-72
2024/03/02 01:37:46;;;;;;;28.63;18.77;;;;;;;8.92;60.77;93251.44;5031535;28;20084;-71
2024/03/02 01:40:12;;;;;;;33.45;19.50;;;;;;;8.99;60.43;93239.28;5031235;28;20513;-72
2024/03/02 01:42:38;;;;;;;32.38;19.13;;;;;;;9.00;60.44;93242.69;5031132;28;20051;-71
2024/03/02 01:45:10;;;;;;;32.95;18.67;;;;;;;9.11;59.94;93246.59;5031352;28;20026;-71
2024/03/02 01:47:35;;;;;;;30.27;19.55;;;;;;;8.94;60.68;93250.03;5031922;28;20017;-72
2024/03/02 01:50:01;;;;;;;31.95;19.77;;;;;;;9.05;60.58;93245.16;5031446;28;20531;-72
2024/03/02 01:52:27;;;;;;;33.80;18.15;;;;;;;8.94;59.88;93243.97;5031166;28;20037;-71
2024/03/02 01:54:52;;;;;;;31.08;18.77;;;;;;;9.12;59.80;93242.06;5031167;28;20401;-72
2024/03/02 01:57:18;;;;;;;26.83;17.15;;;;;;;9.01;59.66;93217.72;5031513;28;20064;-72
2024/03/02 01:59:45;;;;;;;31.50;19.08;;;;;;;9.13;59.74;93219.75;5032757;28;20447;-72
2024/03/02 02:02:10;;;;;;;28.52;17.65;;;;;;;9.23;60.51;93233.44;5035211;28;20061;-72
2024/03/02 02:04:35;;;;;;;26.13;17.23;;;;;;;9.23;59.41;93222.84;5035093;28;20069;-72
2024/03/02 02:07:01;;;;;;;25.70;16.45;;;;;;;9.31;59.40;93235.28;5034925;28;20041;-72
2024/03/02 02:09:26;;;;;;;32.13;18.38;;;;;;;9.24;59.51;93221.72;5035233;28;20045;-72
2024/03/02 02:11:52;;;;;;;26.80;17.30;;;;;;;9.20;59.79;93201.44;5035304;28;20029;-72
2024/03/02 02:14:18;;;;;;;21.05;14.90;;;;;;;9.42;58.41;93239.16;5034770;28;20048;-72
2024/03/02 02:16:43;;;;;;;25.02;16.33;;;;;;;9.19;59.14;93219.25;5034981;28;20099;-72
2024/03/02 02:19:09;;;;;;;25.55;17.50;;;;;;;9.20;60.09;93231.41;5034604;28;20544;-72
2024/03/02 02:21:35;;;;;;;22.92;13.95;;;;;;;9.14;58.82;93238.00;5034743;28;20092;-72
2024/03/02 02:24:03;;;;;;;25.63;16.45;;;;;;;9.17;59.66;93236.59;5034712;28;20030;-71
2024/03/02 02:26:29;;;;;;;28.67;16.33;;;;;;;9.07;60.17;93237.69;5034853;28;20480;-72
2024/03/02 02:28:55;;;;;;;27.13;16.20;;;;;;;9.18;60.26;93222.22;5034356;28;20037;-72
2024/03/02 02:31:20;;;;;;;26.20;16.25;;;;;;;9.35;60.14;93233.53;5034350;28;20057;-72
2024/03/02 02:33:45;;;;;;;23.00;14.80;;;;;;;9.37;59.44;93220.75;5034634;28;20033;-72
2024/03/02 02:36:11;;;;;;;24.42;15.48;;;;;;;9.39;59.53;93215.09;5034291;28;20381;-72
2024/03/02 02:38:40;;;;;;;23.20;15.30;;;;;;;9.51;58.75;93236.44;5034783;28;20085;-72
2024/03/02 02:41:06;;;;;;;26.25;15.77;;;;;;;9.49;59.25;93227.25;5034509;28;20083;-72
2024/03/02 02:43:31;;;;;;;19.23;13.77;;;;;;;9.63;59.22;93235.78;5034336;28;20041;-72
2024/03/02 02:45:56;;;;;;;26.38;16.48;;;;;;;9.47;58.64;93202.91;5034401;28;20033;-71
2024/03/02 02:48:22;;;;;;;26.58;14.50;;;;;;;9.64;58.23;93230.13;5034320;28;20045;-71
2024/03/02 02:50:47;;;;;;;25.20;15.63;;;;;;;9.02;58.95;93192.75;5034817;28;20031;-72
2024/03/02 02:53:13;;;;;;;25.45;16.15;;;;;;;8.87;60.29;93239.13;5034170;28;20116;-72
2024/03/02 02:55:40;;;;;;;25.70;16.50;;;;;;;8.93;60.75;93237.09;5033938;28;20599;-71
2024/03/02 02:58:09;;;;;;;27.80;15.38;;;;;;;9.30;59.38;93231.06;5034331;28;20033;-71
2024/03/02 03:00:34;;;;;;;26.92;15.50;;;;;;;9.41;59.14;93226.19;5033990;28;20038;-72
2024/03/02 03:02:59;;;;;;;30.10;16.48;;;;;;;9.63;58.41;93235.78;5033964;28;20026;-72
2024/03/02 03:05:25;;;;;;;31.52;17.23;;;;;;;9.67;58.61;93239.34;5034699;28;20025;-72
2024/03/02 03:07:51;;;;;;;32.85;17.95;;;;;;;9.52;57.96;93213.34;5033994;28;20492;-72
2024/03/02 03:10:17;;;;;;;30.15;16.52;;;;;;;9.52;58.14;93242.53;5033684;28;20029;-72
2024/03/02 03:12:43;;;;;;;26.90;16.55;;;;;;;9.63;58.37;93243.75;5033847;28;20040;-71
2024/03/02 03:15:09;;;;;;;30.70;19.50;;;;;;;9.54;58.17;93211.13;5033277;28;20021;-72
2024/03/02 03:17:35;;;;;;;27.45;17.92;;;;;;;9.77;58.44;93238.97;5034416;28;20052;-71
2024/03/02 03:20:01;;;;;;;30.13;17.48;;;;;;;9.77;58.64;93229.13;5033732;28;20033;-71
2024/03/02 03:22:27;;;;;;;28.38;18.00;;;;;;;9.79;58.18;93226.91;5033772;28;20087;-72
2024/03/02 03:24:52;;;;;;;26.15;16.35;;;;;;;9.86;58.01;93232.50;5033515;28;20564;-71
2024/03/02 03:27:19;;;;;;;28.80;17.40;;;;;;;9.67;57.92;93223.41;5033397;28;20042;-71
2024/03/02 03:29:45;;;;;;;30.25;16.83;;;;;;;9.73;58.11;93238.06;5034209;28;20100;-71
2024/03/02 03:32:10;;;;;;;29.95;18.35;;;;;;;9.72;59.03;93239.16;5033288;28;20116;-71
2024/03/02 03:34:36;;;;;;;25.35;17.02;;;;;;;9.68;58.48;93227.63;5033437;28;20033;-71
2024/03/02 03:37:02;;;;;;;27.10;17.77;;;;;;;9.65;58.84;93237.00;5033303;28;20045;-71
2024/03/02 03:39:28;;;;;;;30.10;17.40;;;;;;;9.55;59.09;93220.66;5033339;28;20037;-71
2024/03/02 03:41:53;;;;;;;32.88;17.77;;;;;;;9.55;59.25;93236.56;5033313;28;20033;-70
2024/03/02 03:44:19;;;;;;;32.58;20.27;;;;;;;9.25;60.18;93233.09;5033594;28;20021;-71
2024/03/02 03:46:44;;;;;;;34.38;20.70;;;;;;;9.26;60.37;93235.44;5033348;28;20079;-72
2024/03/02 03:49:10;;;;;;;39.90;23.05;;;;;;;9.33;59.93;93238.41;5032964;28;20489;-71
2024/03/02 03:51:35;;;;;;;37.80;23.75;;;;;;;9.11;60.62;93243.13;5033263;28;20041;-71
2024/03/02 03:54:01;;;;;;;37.17;22.70;;;;;;;9.09;60.74;93240.81;5033448;28;20029;-71
2024/03/02 03:56:26;;;;;;;40.10;24.88;;;;;;;9.11;60.59;93246.59;5033292;28;20381;-71
2024/03/02 03:58:52;;;;;;;38.97;23.50;;;;;;;9.14;60.63;93245.97;5032790;28;20492;-71
2024/03/02 04:01:17;;;;;;;39.55;24.33;;;;;;;9.18;60.73;93241.59;5031734;28;20064;-72
2024/03/02 04:03:43;;;;;;;43.35;22.75;;;;;;;9.28;60.44;93241.22;5032801;28;20090;-70
2024/03/02 04:06:08;;;;;;;34.20;22.52;;;;;;;9.32;60.01;93239.50;5033029;28;20065;-72
2024/03/02 04:08:34;;;;;;;37.58;25.08;;;;;;;9.30;59.67;93233.72;5033188;28;20013;-71
2024/03/02 04:10:59;;;;;;;40.83;24.05;;;;;;;9.42;59.32;93244.44;5032920;28;20037;-71
2024/03/02 04:13:24;;;;;;;36.13;24.52;;;;;;;9.37;59.41;93230.56;5031166;28;20483;-71
2024/03/02 04:15:50;;;;;;;35.05;22.55;;;;;;;9.41;59.20;93234.94;5032352;28;20037;-71
2024/03/02 04:18:16;;;;;;;40.20;23.75;;;;;;;9.35;59.10;93228.22;5032573;28;20164;-71
2024/03/02 04:20:41;;;;;;;40.55;23.25;;;;;;;9.44;59.42;93241.47;5033039;28;20033;-71
2024/03/02 04:23:07;;;;;;;39.03;24.75;;;;;;;9.45;59.39;93233.19;5031849;28;20049;-71
2024/03/02 04:25:33;;;;;;;37.75;23.52;;;;;;;9.36;58.83;93210.44;5032393;28;20029;-71
2024/03/02 04:27:58;;;;;;;36.65;22.98;;;;;;;9.51;58.95;93241.75;5032379;28;20049;-71
2024/03/02 04:30:25;;;;;;;39.38;23.80;;;;;;;9.49;59.02;93238.63;5032325;28;20033;-71
2024/03/02 04:32:50;;;;;;;37.40;23.88;;;;;;;9.43;59.29;93235.41;5032804;28;20104;-71
2024/03/02 04:35:16;;;;;;;34.47;22.45;;;;;;;9.43;59.33;93235.41;5032309;28;20121;-72
2024/03/02 04:37:41;;;;;;;34.75;22.60;;;;;;;9.42;59.18;93231.19;5032136;28;20053;-72
2024/03/02 04:40:10;;;;;;;31.83;20.52;;;;;;;9.35;59.50;93228.22;5031887;28;20037;-72
2024/03/02 04:42:35;;;;;;;32.58;20.13;;;;;;;9.48;59.40;93242.41;5032417;28;20029;-72
2024/03/02 04:45:01;;;;;;;35.03;21.58;;;;;;;9.41;59.39;93240.22;5031833;28;20029;-72
2024/03/02 04:47:27;;;;;;;36.70;21.88;;;;;;;9.38;59.59;93245.41;5032411;28;20040;-72
2024/03/02 04:49:52;;;;;;;32.53;20.00;;;;;;;9.34;59.45;93247.91;5031920;28;20489;-72
2024/03/02 04:52:18;;;;;;;34.13;20.83;;;;;;;9.44;59.21;93241.47;5031925;28;20048;-72
2024/03/02 04:57:27;;;;;;;30.83;18.85;;;;;;;9.47;59.87;93250.69;5032305;28;20049;-72
2024/03/02 04:59:53;;;;;;;26.15;18.10;;;;;;;9.45;59.80;93248.34;5032221;28;20021;-69
2024/03/02 05:02:18;;;;;;;28.25;17.30;;;;;;;9.47;59.50;93229.44;5032235;28;20052;-72
2024/03/02 05:04:43;;;;;;;31.20;18.80;;;;;;;9.61;59.44;93246.69;5031866;28;20045;-72
2024/03/02 05:07:09;;;;;;;27.42;18.27;;;;;;;9.55;59.86;93247.19;5031648;28;20034;-72
2024/03/02 05:09:34;;;;;;;27.88;17.30;;;;;;;9.55;59.68;93255.94;5031826;28;20082;-72
2024/03/02 05:14:57;;;;;;;30.02;17.48;;;;;;;9.58;60.07;93251.88;5041195;28;20029;-71
2024/03/02 05:17:22;;;;;;;33.58;19.98;;;;;;;9.39;60.67;93257.56;5032268;28;20030;-72
2024/03/02 05:19:48;;;;;;;32.75;20.15;;;;;;;9.27;61.34;93265.44;5031578;28;20404;-72
2024/03/02 05:22:13;;;;;;;36.80;22.27;;;;;;;9.10;62.20;93274.16;5031465;28;20030;-72
2024/03/02 05:24:38;;;;;;;40.33;26.10;;;;;;;8.81;62.69;93271.41;5030968;28;20037;-71
2024/03/02 05:27:04;;;;;;;41.15;24.67;;;;;;;8.84;63.32;93270.81;5031669;28;20513;-72
2024/03/02 05:29:29;;;;;;;41.10;25.58;;;;;;;8.78;62.77;93261.47;5031954;28;20037;-72
2024/03/02 05:31:55;;;;;;;43.50;27.00;;;;;;;9.04;62.94;93275.47;5031541;28;20079;-72
2024/03/02 05:34:20;;;;;;;46.65;26.15;;;;;;;8.98;62.67;93279.38;5031880;28;20057;-71
2024/03/02 05:36:45;;;;;;;40.78;24.60;;;;;;;8.96;62.72;93284.19;5035520;28;20501;-72
2024/03/02 05:39:11;;;;;;;41.80;25.25;;;;;;;8.89;62.83;93249.44;5034974;28;20057;-72
2024/03/02 05:41:37;;;;;;;45.30;26.05;;;;;;;9.18;62.18;93286.69;5035964;28;20033;-72
2024/03/02 05:44:03;;;;;;;46.92;27.40;;;;;;;9.23;62.27;93285.72;5035295;28;20041;-72
2024/03/02 05:46:29;;;;;;;43.90;26.67;;;;;;;9.28;62.36;93296.97;5035509;28;20025;-72
2024/03/02 05:48:54;;;;;;;47.75;28.17;;;;;;;9.22;62.17;93287.59;5035349;28;20080;-72
2024/03/02 05:51:19;;;;;;;57.22;33.78;;;;;;;9.34;62.17;93298.31;5035222;28;20025;-70
2024/03/02 05:53:45;;;;;;;51.22;30.23;;;;;;;9.38;62.04;93295.84;5035832;28;20029;-72
2024/03/02 05:56:11;;;;;;;47.03;29.35;;;;;;;9.31;61.64;93279.59;5035380;28;20401;-72
2024/03/02 05:58:57;;;;;;;47.92;30.65;;;;;;;9.32;62.12;93289.91;5035243;28;20090;-72
2024/03/02 06:01:28;;;;;;;52.28;28.60;;;;;;;9.31;61.76;93283.03;5035280;28;20068;-72
2024/03/02 06:03:56;;;;;;;46.92;27.48;;;;;;;9.14;63.12;93295.59;5034872;28;20048;-71
2024/03/02 06:06:23;;;;;;;41.80;26.35;;;;;;;8.90;64.28;93290.78;5035176;28;20031;-72
2024/03/02 06:08:48;;;;;;;51.08;28.55;;;;;;;8.67;64.82;93278.78;5035401;28;20417;-72
2024/03/02 06:11:13;;;;;;;49.55;28.50;;;;;;;8.73;65.41;93301.38;5034880;28;20029;-72
2024/03/02 06:13:39;;;;;;;46.72;26.95;;;;;;;8.70;65.85;93296.72;5034674;28;20083;-72
2024/03/02 06:16:04;;;;;;;47.97;27.02;;;;;;;8.28;66.95;93295.59;5034914;28;20516;-72
2024/03/02 06:18:30;;;;;;;49.72;27.63;;;;;;;8.37;67.18;93299.81;5034524;28;20040;-71
2024/03/02 06:20:55;;;;;;;46.05;27.60;;;;;;;8.26;67.24;93300.47;5034633;28;20022;-71
2024/03/02 06:23:20;;;;;;;49.55;29.55;;;;;;;8.06;68.52;93299.19;5033411;28;20029;-72
2024/03/02 06:25:46;;;;;;;50.63;29.10;;;;;;;8.12;68.27;93300.56;5034367;28;20030;-70
2024/03/02 06:28:11;;;;;;;47.28;27.42;;;;;;;8.28;67.55;93296.38;5033635;28;20500;-72
2024/03/02 06:30:36;;;;;;;49.60;30.15;;;;;;;8.22;68.02;93308.22;5034546;28;20105;-72
2024/03/02 06:33:03;;;;;;;50.70;29.73;;;;;;;8.09;68.91;93309.94;5034701;28;20093;-71
2024/03/02 06:35:29;;;;;;;51.28;29.55;;;;;;;7.88;69.66;93302.84;5034565;28;20021;-72
2024/03/02 06:37:55;;;;;;;48.88;28.25;;;;;;;7.94;70.07;93312.22;5033969;28;20037;-70
2024/03/02 06:40:21;;;;;;;52.25;28.88;;;;;;;7.59;70.94;93292.78;5033982;28;20088;-72
2024/03/02 06:42:46;;;;;;;49.85;29.92;;;;;;;7.97;69.97;93306.34;5033967;28;20038;-72
2024/03/02 06:45:11;;;;;;;49.90;29.25;;;;;;;7.81;70.36;93313.91;5033289;28;20026;-72
2024/03/02 06:47:37;;;;;;;42.30;25.50;;;;;;;7.38;71.75;93320.88;5034400;28;20171;-72
2024/03/02 06:50:02;;;;;;;43.15;23.60;;;;;;;7.09;72.36;93314.19;5033297;28;20044;-71
2024/03/02 06:52:28;;;;;;;39.70;23.05;;;;;;;6.70;74.01;93324.69;5032709;28;20128;-72
2024/03/02 06:54:53;;;;;;;35.30;20.85;;;;;;;6.81;74.52;93313.56;5032817;28;20124;-72
2024/03/02 06:57:20;;;;;;;34.83;20.00;;;;;;;7.15;73.40;93325.41;5032435;28;20033;-72
2024/03/02 06:59:46;;;;;;;31.48;18.88;;;;;;;7.30;73.02;93325.03;5033167;28;20124;-72
2024/03/02 07:02:12;;;;;;;29.90;18.75;;;;;;;7.12;73.06;93323.38;5032877;28;20124;-72
2024/03/02 07:04:37;;;;;;;28.42;17.70;;;;;;;7.37;72.79;93329.91;5032905;28;20037;-71
2024/03/02 07:07:03;;;;;;;29.98;16.77;;;;;;;7.73;70.68;93300.66;5032962;28;20037;-72
2024/03/02 07:09:28;;;;;;;36.72;19.38;;;;;;;7.93;69.84;93323.91;5033520;28;20115;-72
2024/03/02 07:11:53;;;;;;;27.40;16.33;;;;;;;8.08;69.35;93320.81;5033564;28;20022;-71
2024/03/02 07:14:19;;;;;;;35.40;19.75;;;;;;;8.27;68.79;93331.91;5033897;28;20021;-72
2024/03/02 07:16:44;;;;;;;31.67;18.33;;;;;;;8.03;68.57;93320.97;5033468;28;20554;-72
2024/03/02 07:19:10;;;;;;;26.92;16.77;;;;;;;7.79;69.25;93310.00;5033567;28;20045;-72
2024/03/02 07:21:35;;;;;;;31.55;16.98;;;;;;;8.05;69.20;93334.69;5033795;28;20061;-71
2024/03/02 07:24:02;;;;;;;31.38;17.23;;;;;;;8.26;68.75;93330.38;5033335;28;20470;-71
2024/03/02 07:26:31;;;;;;;23.45;15.95;;;;;;;8.28;68.15;93333.47;5034046;28;20034;-72
2024/03/02 07:28:56;;;;;;;27.70;15.95;;;;;;;8.21;68.05;93316.50;5033316;28;20501;-73
2024/03/02 07:31:22;;;;;;;25.20;15.88;;;;;;;8.12;68.04;93330.50;5033003;28;20048;-71
2024/03/02 07:33:47;;;;;;;29.48;15.82;;;;;;;8.01;68.50;93325.81;5032861;28;20034;-71
2024/03/02 07:36:13;;;;;;;24.63;15.63;;;;;;;8.28;67.62;93328.19;5033114;28;20047;-71
2024/03/02 07:38:38;;;;;;;25.25;15.65;;;;;;;8.32;67.85;93345.00;5033828;28;20041;-71
2024/03/02 07:41:04;;;;;;;28.77;16.75;;;;;;;8.36;67.68;93334.59;5032548;28;20440;-70
2024/03/02 07:43:31;;;;;;;30.08;19.08;;;;;;;8.15;67.91;93326.47;5032530;28;20455;-71
2024/03/02 07:45:57;;;;;;;28.05;16.95;;;;;;;7.82;69.37;93344.59;5032613;28;20044;-71
2024/03/02 07:48:22;;;;;;;29.30;18.17;;;;;;;7.51;70.75;93334.00;5032419;28;20030;-71
2024/03/02 07:50:48;;;;;;;29.15;16.75;;;;;;;7.80;70.48;93343.34;5033370;28;20101;-71
2024/03/02 07:53:14;;;;;;;31.55;18.23;;;;;;;7.80;70.55;93340.69;5032572;28;20034;-71
2024/03/02 07:55:40;;;;;;;30.35;19.65;;;;;;;7.66;71.17;93341.56;5032557;28;20604;-72
2024/03/02 07:58:06;;;;;;;32.42;19.10;;;;;;;7.90;70.24;93349.13;5031624;28;20528;-71
2024/03/02 08:00:31;;;;;;;38.60;21.52;;;;;;;7.44;72.00;93338.94;5032906;28;20049;-71
2024/03/02 08:02:57;;;;;;;37.83;21.55;;;;;;;7.06;73.01;93351.81;5032788;28;20017;-71
2024/03/02 08:05:22;;;;;;;36.72;21.33;;;;;;;6.65;75.00;93333.47;5032691;28;20031;-71
2024/03/02 08:07:48;;;;;;;39.38;21.52;;;;;;;6.95;75.34;93360.28;5031890;28;20045;-73
2024/03/02 08:10:13;;;;;;;41.17;22.13;;;;;;;6.97;74.71;93352.84;5030134;28;20052;-72
2024/03/02 08:12:39;;;;;;;37.33;23.05;;;;;;;6.37;75.97;93361.84;5030014;28;20487;-72
2024/03/02 08:15:05;;;;;;;40.83;22.50;;;;;;;6.76;75.96;93363.88;5030241;28;20037;-72
2024/03/02 08:17:30;;;;;;;38.72;22.13;;;;;;;6.44;76.27;93356.19;5030555;28;20017;-72
2024/03/02 08:19:56;;;;;;;36.30;20.58;;;;;;;6.30;76.47;93336.94;5030043;28;20032;-72
2024/03/02 08:22:23;;;;;;;41.95;23.77;;;;;;;6.32;77.12;93363.81;5030171;28;20405;-72
2024/03/02 08:24:48;;;;;;;41.35;23.95;;;;;;;5.95;78.02;93355.06;5030693;28;20056;-72
2024/03/02 08:27:14;;;;;;;48.28;23.85;;;;;;;6.32;77.76;93372.53;5030981;28;20034;-72
2024/03/02 08:29:41;;;;;;;41.88;23.63;;;;;;;6.16;78.51;93359.97;5031709;28;20465;-73
2024/03/02 08:32:07;;;;;;;42.70;23.48;;;;;;;6.06;79.26;93360.13;5031981;28;20030;-72
2024/03/02 08:34:33;;;;;;;43.10;24.67;;;;;;;6.12;79.33;93345.72;5032450;28;20056;-72
2024/03/02 08:36:59;;;;;;;49.13;26.15;;;;;;;6.23;79.43;93355.03;5031969;28;20040;-72
2024/03/02 08:39:24;;;;;;;45.33;24.48;;;;;;;6.63;78.57;93356.81;5032145;28;20045;-72
2024/03/02 08:41:50;;;;;;;48.25;25.73;;;;;;;6.92;77.94;93356.38;5032512;28;20428;-72
2024/03/02 08:44:17;;;;;;;45.53;25.52;;;;;;;6.83;77.22;93335.19;5031625;28;20128;-72
2024/03/02 08:46:43;;;;;;;44.67;24.17;;;;;;;6.96;77.10;93348.63;5032158;28;20108;-72
2024/03/02 08:49:10;;;;;;;41.33;21.33;;;;;;;7.34;76.14;93363.00;5031196;28;20496;-72
2024/03/02 08:51:36;;;;;;;39.42;23.58;;;;;;;7.15;75.12;93343.94;5031843;28;20121;-73
2024/03/02 08:54:01;;;;;;;43.58;21.40;;;;;;;7.27;74.82;93357.38;5031245;28;20100;-72
2024/03/02 08:56:27;;;;;;;40.83;23.30;;;;;;;6.56;77.48;93359.06;5032528;28;20060;-72
2024/03/02 08:58:52;;;;;;;40.03;23.58;;;;;;;6.39;77.85;93335.16;5031177;28;20064;-73
2024/03/02 09:01:21;;;;;;;41.38;22.75;;;;;;;6.60;77.73;93361.91;5031558;28;20053;-70
2024/03/02 09:03:47;;;;;;;46.33;26.00;;;;;;;6.60;78.03;93359.25;5030393;28;20525;-72
2024/03/02 09:06:13;;;;;;;39.08;23.90;;;;;;;7.06;76.83;93364.25;5031670;28;20041;-73
2024/03/02 09:08:39;;;;;;;46.15;24.60;;;;;;;7.33;75.28;93361.47;5031896;28;20022;-72
2024/03/02 09:11:05;;;;;;;42.58;22.83;;;;;;;7.65;74.83;93363.03;5031393;28;20091;-73
2024/03/02 09:13:31;;;;;;;37.85;21.45;;;;;;;7.51;73.82;93352.53;5031453;28;20032;-72
2024/03/02 09:15:57;;;;;;;36.28;19.95;;;;;;;7.50;74.33;93366.06;5031423;28;20128;-72
2024/03/02 09:18:22;;;;;;;37.83;19.73;;;;;;;7.22;73.89;93360.16;5031473;28;20569;-73
2024/03/02 09:20:47;;;;;;;39.35;22.17;;;;;;;7.46;74.29;93360.59;5031299;28;20017;-72
2024/03/02 09:23:13;;;;;;;38.47;20.23;;;;;;;7.93;72.55;93358.31;5031973;28;20057;-73
2024/03/02 09:25:38;;;;;;;35.05;20.88;;;;;;;8.47;70.88;93376.38;5031336;28;20033;-73
2024/03/02 09:28:04;;;;;;;35.05;20.92;;;;;;;8.61;69.46;93372.81;5031439;28;20034;-72
2024/03/02 09:30:29;;;;;;;37.17;21.00;;;;;;;8.41;68.75;93361.69;5032136;28;20249;-73
2024/03/02 09:32:54;;;;;;;30.63;19.75;;;;;;;8.45;69.88;93375.91;5031408;28;20477;-70
2024/03/02 09:35:20;;;;;;;31.73;18.67;;;;;;;8.83;68.30;93375.31;5032135;28;20179;-72
2024/03/02 09:37:46;;;;;;;31.52;19.23;;;;;;;8.81;68.18;93366.88;5031281;28;20037;-71
2024/03/02 09:40:13;;;;;;;30.85;17.38;;;;;;;9.21;66.66;93375.47;5031139;28;20046;-72
2024/03/02 09:42:39;;;;;;;34.88;20.08;;;;;;;9.38;65.51;93376.22;5031567;28;20513;-72
2024/03/02 09:45:06;;;;;;;28.40;17.55;;;;;;;9.69;65.08;93375.97;5031848;28;20060;-71
2024/03/02 09:47:31;;;;;;;33.33;19.45;;;;;;;9.73;64.28;93365.53;5031616;28;20485;-71
2024/03/02 09:49:56;;;;;;;31.25;18.05;;;;;;;9.84;63.55;93380.00;5031480;28;20056;-72
2024/03/02 09:52:25;;;;;;;27.50;18.52;;;;;;;9.86;63.23;93377.81;5031212;28;20065;-72
2024/03/02 09:54:51;;;;;;;26.55;15.00;;;;;;;9.59;62.53;93381.63;5031250;28;20505;-72
2024/03/02 09:57:16;;;;;;;25.10;16.38;;;;;;;9.62;62.55;93356.34;5031073;28;20033;-72
2024/03/02 09:59:42;;;;;;;24.80;15.98;;;;;;;9.29;62.17;93362.19;5031965;28;20029;-71
2024/03/02 10:02:07;;;;;;;24.45;15.73;;;;;;;9.46;62.14;93361.38;5031016;28;20053;-72
2024/03/02 10:04:35;;;;;;;25.30;14.43;;;;;;;9.73;61.98;93381.47;5030880;28;20084;-72
2024/03/02 10:07:17;;;;;;;29.02;18.15;;;;;;;9.89;60.56;93382.47;5031279;28;20030;-71
2024/03/02 10:09:48;;;;;;;26.23;16.35;;;;;;;9.95;60.60;93378.53;5031126;28;20039;-72
2024/03/02 10:12:16;;;;;;;25.35;16.15;;;;;;;9.96;60.89;93380.13;5030709;28;20068;-72
2024/03/02 10:14:42;;;;;;;26.15;17.05;;;;;;;10.08;60.37;93382.06;5031648;28;20091;-72
2024/03/02 10:17:09;;;;;;;26.48;17.60;;;;;;;10.17;60.99;93370.31;5030818;28;20037;-72
2024/03/02 10:19:36;;;;;;;32.13;19.10;;;;;;;10.06;61.33;93377.09;5030677;28;20029;-71
2024/03/02 10:22:07;;;;;;;30.50;18.50;;;;;;;9.81;62.49;93377.97;5034189;28;20044;-72
2024/03/02 10:24:50;;;;;;;30.45;17.90;;;;;;;9.45;62.59;93339.34;5034755;28;20069;-72
2024/03/02 10:27:17;;;;;;;33.60;19.83;;;;;;;9.49;63.14;93376.66;5034999;28;20033;-72
2024/03/02 10:29:46;;;;;;;37.10;20.38;;;;;;;9.80;62.79;93376.41;5034863;28;20104;-72
2024/03/02 10:32:12;;;;;;;33.40;19.02;;;;;;;9.48;63.27;93366.38;5034800;28;20064;-72
2024/03/02 10:34:40;;;;;;;35.10;20.42;;;;;;;9.16;65.70;93381.72;5034476;28;20064;-71
2024/03/02 10:37:07;;;;;;;35.53;21.58;;;;;;;8.90;66.58;93359.72;5034480;28;20075;-72
2024/03/02 10:39:35;;;;;;;40.08;21.95;;;;;;;8.54;69.67;93379.34;5034244;28;20046;-72
2024/03/02 10:42:03;;;;;;;39.13;21.52;;;;;;;8.38;69.32;93358.91;5034548;28;20028;-72
2024/03/02 10:44:30;;;;;;;38.92;22.38;;;;;;;8.75;69.16;93374.22;5034821;28;20037;-72
2024/03/02 10:46:56;;;;;;;36.67;21.42;;;;;;;8.63;70.04;93379.34;5034258;28;20040;-72
2024/03/02 10:49:24;;;;;;;39.28;22.27;;;;;;;8.58;70.56;93364.38;5034101;28;20041;-72
2024/03/02 10:51:49;;;;;;;40.47;21.45;;;;;;;8.32;70.80;93370.72;5034023;28;20120;-72
2024/03/02 10:54:14;;;;;;;36.70;22.33;;;;;;;8.22;71.84;93374.44;5034208;28;20508;-72
2024/03/02 10:56:44;;;;;;;42.40;23.42;;;;;;;8.07;72.92;93364.31;5034617;28;20033;-72
2024/03/02 10:59:30;;;;;;;41.40;23.98;;;;;;;8.09;72.76;93368.19;5033813;28;20037;-71
2024/03/02 11:01:58;;;;;;;36.95;22.58;;;;;;;7.81;74.03;93363.44;5034176;28;20505;-72
2024/03/02 11:04:25;;;;;;;51.53;26.85;;;;;;;7.66;74.77;93352.13;5033541;28;20037;-71
2024/03/02 11:06:51;;;;;;;46.78;26.20;;;;;;;7.63;74.89;93355.38;5033994;28;20030;-72
2024/03/02 11:09:22;;;;;;;41.28;25.52;;;;;;;7.57;74.81;93356.63;5033638;28;20033;-71
2024/03/02 11:12:12;;;;;;;43.17;24.15;;;;;;;7.53;74.93;93366.22;5033936;28;20022;-72
2024/03/02 11:14:43;;;;;;;37.97;23.25;;;;;;;7.77;75.28;93355.31;5033754;28;20472;-71
2024/03/02 11:17:09;;;;;;;35.72;21.45;;;;;;;7.94;73.84;93355.38;5033476;28;20520;-71
2024/03/02 11:19:36;;;;;;;35.33;21.42;;;;;;;7.98;72.89;93351.03;5033612;28;20703;-72
2024/03/02 11:22:03;;;;;;;32.33;19.63;;;;;;;8.42;71.48;93339.41;5033470;28;20110;-71
2024/03/02 11:24:33;;;;;;;32.72;20.80;;;;;;;8.90;69.42;93341.91;5033324;28;20061;-72